sensor_id;sensor_type;location;lat;lon;timestamp;P1;durP1;ratioP1;P2;durP2;ratioP2
67665;SDS011;54448;51.472;-2.574;2023-03-04T00:01:01;41.67;;;15.52;;
67665;SDS011;54448;51.472;-2.574;2023-03-04T00:03:26;40.65;;;14.35;;
67665;SDS011;54448;51.472;-2.574;2023-03-04T00:05:52;42.85;;;14.38;;
67665;SDS011;54448;51.472;-2.574;2023-03-04T00:08:18;43.90;;;15.02;;
67665;SDS011;54448;51.472;-2.574;2023-03-04T00:10:45;46.20;;;14.18;;
67665;SDS011;54448;51.472;-2.574;2023-03-04T00:13:10;37.35;;;14.20;;
67665;SDS011;54448;51.472;-2.574;2023-03-04T00:15:35;42.05;;;13.73;;
67665;SDS011;54448;51.472;-2.574;2023-03-04T00:18:01;43.97;;;15.25;;
67665;SDS011;54448;51.472;-2.574;2023-03-04T00:20:26;41.88;;;14.45;;
67665;SDS011;54448;51.472;-2.574;2023-03-04T00:22:52;37.85;;;14.32;;
67665;SDS011;54448;51.472;-2.574;2023-03-04T00:25:17;36.17;;;13.43;;
67665;SDS011;54448;51.472;-2.574;2023-03-04T00:27:43;37.50;;;13.70;;
67665;SDS011;54448;51.472;-2.574;2023-03-04T00:30:08;39.30;;;13.35;;
67665;SDS011;54448;51.472;-2.574;2023-03-04T00:32:34;36.63;;;13.38;;
67665;SDS011;54448;51.472;-2.574;2023-03-04T00:34:59;33.70;;;12.90;;
67665;SDS011;54448;51.472;-2.574;2023-03-04T00:37:25;31.95;;;12.05;;
67665;SDS011;54448;51.472;-2.574;2023-03-04T00:39:50;35.00;;;11.93;;
67665;SDS011;54448;51.472;-2.574;2023-03-04T00:42:16;32.58;;;11.75;;
67665;SDS011;54448;51.472;-2.574;2023-03-04T00:44:41;33.30;;;11.07;;
67665;SDS011;54448;51.472;-2.574;2023-03-04T00:47:06;33.50;;;10.77;;
67665;SDS011;54448;51.472;-2.574;2023-03-04T00:49:32;31.10;;;10.45;;
67665;SDS011;54448;51.472;-2.574;2023-03-04T00:51:57;29.17;;;9.30;;
67665;SDS011;54448;51.472;-2.574;2023-03-04T00:54:23;34.22;;;9.43;;
67665;SDS011;54448;51.472;-2.574;2023-03-04T00:56:51;29.95;;;8.73;;
67665;SDS011;54448;51.472;-2.574;2023-03-04T00:59:17;23.42;;;7.70;;
67665;SDS011;54448;51.472;-2.574;2023-03-04T01:01:44;29.13;;;8.85;;
67665;SDS011;54448;51.472;-2.574;2023-03-04T01:04:09;25.77;;;7.82;;
67665;SDS011;54448;51.472;-2.574;2023-03-04T01:06:35;22.30;;;7.47;;
67665;SDS011;54448;51.472;-2.574;2023-03-04T01:09:00;30.70;;;7.88;;
67665;SDS011;54448;51.472;-2.574;2023-03-04T01:11:26;27.55;;;8.55;;
67665;SDS011;54448;51.472;-2.574;2023-03-04T01:13:51;29.27;;;7.05;;
67665;SDS011;54448;51.472;-2.574;2023-03-04T01:16:16;30.20;;;7.72;;
67665;SDS011;54448;51.472;-2.574;2023-03-04T01:18:42;24.85;;;6.28;;
67665;SDS011;54448;51.472;-2.574;2023-03-04T01:21:07;27.13;;;6.57;;
67665;SDS011;54448;51.472;-2.574;2023-03-04T01:23:33;30.50;;;6.85;;
67665;SDS011;54448;51.472;-2.574;2023-03-04T01:25:58;25.27;;;7.70;;
67665;SDS011;54448;51.472;-2.574;2023-03-04T01:28:23;31.70;;;7.60;;
67665;SDS011;54448;51.472;-2.574;2023-03-04T01:30:49;28.50;;;7.43;;
67665;SDS011;54448;51.472;-2.574;2023-03-04T01:33:14;23.75;;;7.68;;
67665;SDS011;54448;51.472;-2.574;2023-03-04T01:35:40;26.52;;;8.10;;
67665;SDS011;54448;51.472;-2.574;2023-03-04T01:38:05;31.38;;;10.20;;
67665;SDS011;54448;51.472;-2.574;2023-03-04T01:40:30;31.15;;;9.27;;
67665;SDS011;54448;51.472;-2.574;2023-03-04T01:42:56;31.35;;;10.38;;
67665;SDS011;54448;51.472;-2.574;2023-03-04T01:45:21;28.90;;;10.18;;
67665;SDS011;54448;51.472;-2.574;2023-03-04T01:47:47;38.53;;;11.85;;
67665;SDS011;54448;51.472;-2.574;2023-03-04T01:50:21;31.67;;;11.70;;
67665;SDS011;54448;51.472;-2.574;2023-03-04T01:52:55;30.75;;;11.77;;
67665;SDS011;54448;51.472;-2.574;2023-03-04T01:55:21;36.22;;;12.30;;
67665;SDS011;54448;51.472;-2.574;2023-03-04T01:57:47;41.30;;;11.73;;
67665;SDS011;54448;51.472;-2.574;2023-03-04T02:02:45;23.58;;;8.27;;
67665;SDS011;54448;51.472;-2.574;2023-03-04T02:05:12;33.35;;;8.65;;
67665;SDS011;54448;51.472;-2.574;2023-03-04T02:07:38;27.88;;;8.77;;
67665;SDS011;54448;51.472;-2.574;2023-03-04T02:10:04;24.00;;;8.70;;
67665;SDS011;54448;51.472;-2.574;2023-03-04T02:12:30;28.70;;;7.72;;
67665;SDS011;54448;51.472;-2.574;2023-03-04T02:14:55;24.30;;;7.60;;
67665;SDS011;54448;51.472;-2.574;2023-03-04T02:17:24;22.92;;;7.88;;
67665;SDS011;54448;51.472;-2.574;2023-03-04T02:19:53;25.85;;;8.32;;
67665;SDS011;54448;51.472;-2.574;2023-03-04T02:22:23;24.33;;;6.85;;
67665;SDS011;54448;51.472;-2.574;2023-03-04T02:24:52;25.92;;;6.80;;
67665;SDS011;54448;51.472;-2.574;2023-03-04T02:27:19;23.45;;;7.43;;
67665;SDS011;54448;51.472;-2.574;2023-03-04T02:29:44;23.77;;;7.57;;
67665;SDS011;54448;51.472;-2.574;2023-03-04T02:32:11;27.08;;;6.43;;
67665;SDS011;54448;51.472;-2.574;2023-03-04T02:34:43;21.10;;;6.07;;
67665;SDS011;54448;51.472;-2.574;2023-03-04T02:39:40;23.55;;;6.63;;
67665;SDS011;54448;51.472;-2.574;2023-03-04T02:42:06;23.00;;;6.32;;
67665;SDS011;54448;51.472;-2.574;2023-03-04T02:44:33;24.23;;;6.40;;
67665;SDS011;54448;51.472;-2.574;2023-03-04T02:47:00;29.92;;;7.38;;
67665;SDS011;54448;51.472;-2.574;2023-03-04T02:49:27;19.27;;;6.28;;
67665;SDS011;54448;51.472;-2.574;2023-03-04T02:52:01;32.03;;;6.70;;
67665;SDS011;54448;51.472;-2.574;2023-03-04T02:54:26;24.80;;;7.45;;
67665;SDS011;54448;51.472;-2.574;2023-03-04T02:56:53;24.92;;;7.18;;
67665;SDS011;54448;51.472;-2.574;2023-03-04T02:59:21;25.10;;;6.43;;
67665;SDS011;54448;51.472;-2.574;2023-03-04T03:01:47;23.80;;;6.80;;
67665;SDS011;54448;51.472;-2.574;2023-03-04T03:04:13;25.17;;;5.95;;
67665;SDS011;54448;51.472;-2.574;2023-03-04T03:06:38;20.48;;;6.38;;
67665;SDS011;54448;51.472;-2.574;2023-03-04T03:09:04;29.25;;;6.97;;
67665;SDS011;54448;51.472;-2.574;2023-03-04T03:11:30;17.10;;;6.03;;
67665;SDS011;54448;51.472;-2.574;2023-03-04T03:13:55;30.98;;;7.10;;
67665;SDS011;54448;51.472;-2.574;2023-03-04T03:16:21;18.52;;;5.75;;
67665;SDS011;54448;51.472;-2.574;2023-03-04T03:18:46;22.15;;;4.93;;
67665;SDS011;54448;51.472;-2.574;2023-03-04T03:21:12;26.88;;;7.20;;
67665;SDS011;54448;51.472;-2.574;2023-03-04T03:23:37;24.73;;;6.47;;
67665;SDS011;54448;51.472;-2.574;2023-03-04T03:26:02;27.48;;;7.20;;
67665;SDS011;54448;51.472;-2.574;2023-03-04T03:28:28;28.38;;;6.72;;
67665;SDS011;54448;51.472;-2.574;2023-03-04T03:30:54;20.63;;;6.82;;
67665;SDS011;54448;51.472;-2.574;2023-03-04T03:33:19;30.77;;;6.60;;
67665;SDS011;54448;51.472;-2.574;2023-03-04T03:35:44;24.63;;;6.88;;
67665;SDS011;54448;51.472;-2.574;2023-03-04T03:38:10;30.45;;;7.35;;
67665;SDS011;54448;51.472;-2.574;2023-03-04T03:40:35;28.80;;;8.32;;
67665;SDS011;54448;51.472;-2.574;2023-03-04T03:43:00;21.73;;;7.53;;
67665;SDS011;54448;51.472;-2.574;2023-03-04T03:45:26;27.20;;;7.82;;
67665;SDS011;54448;51.472;-2.574;2023-03-04T03:47:51;29.15;;;8.05;;
67665;SDS011;54448;51.472;-2.574;2023-03-04T03:50:16;29.48;;;7.97;;
67665;SDS011;54448;51.472;-2.574;2023-03-04T03:52:42;31.20;;;8.13;;
67665;SDS011;54448;51.472;-2.574;2023-03-04T03:55:07;27.75;;;7.82;;
67665;SDS011;54448;51.472;-2.574;2023-03-04T03:57:33;32.92;;;8.57;;
67665;SDS011;54448;51.472;-2.574;2023-03-04T03:59:58;28.58;;;8.05;;
67665;SDS011;54448;51.472;-2.574;2023-03-04T04:02:24;25.75;;;8.45;;
67665;SDS011;54448;51.472;-2.574;2023-03-04T04:04:49;27.38;;;9.88;;
67665;SDS011;54448;51.472;-2.574;2023-03-04T04:07:14;38.00;;;10.45;;
67665;SDS011;54448;51.472;-2.574;2023-03-04T04:09:40;33.60;;;9.38;;
67665;SDS011;54448;51.472;-2.574;2023-03-04T04:12:05;34.60;;;9.05;;
67665;SDS011;54448;51.472;-2.574;2023-03-04T04:14:31;29.23;;;8.73;;
67665;SDS011;54448;51.472;-2.574;2023-03-04T04:16:57;27.83;;;9.15;;
67665;SDS011;54448;51.472;-2.574;2023-03-04T04:19:23;33.30;;;9.38;;
67665;SDS011;54448;51.472;-2.574;2023-03-04T04:21:48;32.40;;;8.77;;
67665;SDS011;54448;51.472;-2.574;2023-03-04T04:24:14;25.77;;;9.52;;
67665;SDS011;54448;51.472;-2.574;2023-03-04T04:26:39;25.77;;;9.18;;
67665;SDS011;54448;51.472;-2.574;2023-03-04T04:29:05;34.78;;;9.45;;
67665;SDS011;54448;51.472;-2.574;2023-03-04T04:31:31;27.60;;;8.63;;
67665;SDS011;54448;51.472;-2.574;2023-03-04T04:33:56;30.95;;;9.52;;
67665;SDS011;54448;51.472;-2.574;2023-03-04T04:36:22;29.98;;;9.60;;
67665;SDS011;54448;51.472;-2.574;2023-03-04T04:38:47;30.15;;;9.85;;
67665;SDS011;54448;51.472;-2.574;2023-03-04T04:41:21;27.30;;;9.38;;
67665;SDS011;54448;51.472;-2.574;2023-03-04T04:43:54;34.40;;;9.82;;
67665;SDS011;54448;51.472;-2.574;2023-03-04T04:46:19;37.75;;;11.57;;
67665;SDS011;54448;51.472;-2.574;2023-03-04T04:48:45;41.22;;;10.32;;
67665;SDS011;54448;51.472;-2.574;2023-03-04T04:51:11;26.05;;;9.40;;
67665;SDS011;54448;51.472;-2.574;2023-03-04T04:53:37;25.05;;;9.75;;
67665;SDS011;54448;51.472;-2.574;2023-03-04T04:56:12;33.85;;;10.85;;
67665;SDS011;54448;51.472;-2.574;2023-03-04T04:58:42;37.55;;;10.20;;
67665;SDS011;54448;51.472;-2.574;2023-03-04T05:01:08;40.03;;;10.45;;
67665;SDS011;54448;51.472;-2.574;2023-03-04T05:03:34;41.38;;;11.95;;
67665;SDS011;54448;51.472;-2.574;2023-03-04T05:06:00;28.50;;;10.55;;
67665;SDS011;54448;51.472;-2.574;2023-03-04T05:08:25;39.55;;;11.20;;
67665;SDS011;54448;51.472;-2.574;2023-03-04T05:10:51;41.63;;;11.52;;
67665;SDS011;54448;51.472;-2.574;2023-03-04T05:13:17;36.63;;;11.05;;
67665;SDS011;54448;51.472;-2.574;2023-03-04T05:15:43;37.47;;;11.23;;
67665;SDS011;54448;51.472;-2.574;2023-03-04T05:18:09;28.88;;;9.18;;
67665;SDS011;54448;51.472;-2.574;2023-03-04T05:20:34;37.20;;;11.43;;
67665;SDS011;54448;51.472;-2.574;2023-03-04T05:22:59;35.58;;;11.32;;
67665;SDS011;54448;51.472;-2.574;2023-03-04T05:25:25;27.23;;;10.57;;
67665;SDS011;54448;51.472;-2.574;2023-03-04T05:27:50;32.10;;;11.55;;
67665;SDS011;54448;51.472;-2.574;2023-03-04T05:30:16;36.75;;;11.05;;
67665;SDS011;54448;51.472;-2.574;2023-03-04T05:32:41;41.55;;;12.00;;
67665;SDS011;54448;51.472;-2.574;2023-03-04T05:35:06;44.70;;;12.15;;
67665;SDS011;54448;51.472;-2.574;2023-03-04T05:37:32;34.58;;;11.85;;
67665;SDS011;54448;51.472;-2.574;2023-03-04T05:39:58;34.78;;;12.32;;
67665;SDS011;54448;51.472;-2.574;2023-03-04T05:42:23;48.88;;;12.88;;
67665;SDS011;54448;51.472;-2.574;2023-03-04T05:44:48;30.92;;;10.98;;
67665;SDS011;54448;51.472;-2.574;2023-03-04T05:47:14;42.45;;;11.73;;
67665;SDS011;54448;51.472;-2.574;2023-03-04T05:49:39;40.30;;;11.30;;
67665;SDS011;54448;51.472;-2.574;2023-03-04T05:52:05;32.13;;;10.02;;
67665;SDS011;54448;51.472;-2.574;2023-03-04T05:54:31;40.67;;;11.63;;
67665;SDS011;54448;51.472;-2.574;2023-03-04T05:56:56;37.55;;;11.90;;
67665;SDS011;54448;51.472;-2.574;2023-03-04T05:59:22;40.15;;;11.30;;
67665;SDS011;54448;51.472;-2.574;2023-03-04T06:01:47;36.47;;;10.65;;
67665;SDS011;54448;51.472;-2.574;2023-03-04T06:04:13;32.30;;;10.23;;
67665;SDS011;54448;51.472;-2.574;2023-03-04T06:06:38;27.42;;;9.43;;
67665;SDS011;54448;51.472;-2.574;2023-03-04T06:09:03;37.30;;;9.48;;
67665;SDS011;54448;51.472;-2.574;2023-03-04T06:11:29;40.72;;;10.80;;
67665;SDS011;54448;51.472;-2.574;2023-03-04T06:13:54;30.98;;;10.32;;
67665;SDS011;54448;51.472;-2.574;2023-03-04T06:16:19;35.50;;;10.82;;
67665;SDS011;54448;51.472;-2.574;2023-03-04T06:18:45;34.08;;;9.60;;
67665;SDS011;54448;51.472;-2.574;2023-03-04T06:21:10;35.22;;;10.38;;
67665;SDS011;54448;51.472;-2.574;2023-03-04T06:23:35;40.28;;;11.05;;
67665;SDS011;54448;51.472;-2.574;2023-03-04T06:26:01;33.40;;;9.57;;
67665;SDS011;54448;51.472;-2.574;2023-03-04T06:28:27;37.72;;;11.65;;
67665;SDS011;54448;51.472;-2.574;2023-03-04T06:30:53;29.70;;;9.10;;
67665;SDS011;54448;51.472;-2.574;2023-03-04T06:33:19;41.83;;;10.38;;
67665;SDS011;54448;51.472;-2.574;2023-03-04T06:35:45;30.63;;;8.68;;
67665;SDS011;54448;51.472;-2.574;2023-03-04T06:38:10;28.02;;;9.05;;
67665;SDS011;54448;51.472;-2.574;2023-03-04T06:40:36;24.50;;;8.77;;
67665;SDS011;54448;51.472;-2.574;2023-03-04T06:43:01;29.90;;;8.88;;
67665;SDS011;54448;51.472;-2.574;2023-03-04T06:45:27;28.75;;;8.43;;
67665;SDS011;54448;51.472;-2.574;2023-03-04T06:47:52;38.72;;;7.97;;
67665;SDS011;54448;51.472;-2.574;2023-03-04T06:50:17;33.70;;;8.13;;
67665;SDS011;54448;51.472;-2.574;2023-03-04T06:52:43;26.38;;;7.60;;
67665;SDS011;54448;51.472;-2.574;2023-03-04T06:55:08;26.10;;;8.02;;
67665;SDS011;54448;51.472;-2.574;2023-03-04T06:57:34;32.08;;;9.25;;
67665;SDS011;54448;51.472;-2.574;2023-03-04T06:59:59;31.20;;;8.10;;
67665;SDS011;54448;51.472;-2.574;2023-03-04T07:02:27;30.35;;;8.45;;
67665;SDS011;54448;51.472;-2.574;2023-03-04T07:04:52;23.75;;;7.93;;
67665;SDS011;54448;51.472;-2.574;2023-03-04T07:07:17;23.40;;;6.78;;
67665;SDS011;54448;51.472;-2.574;2023-03-04T07:09:43;19.40;;;6.80;;
67665;SDS011;54448;51.472;-2.574;2023-03-04T07:12:08;32.75;;;7.85;;
67665;SDS011;54448;51.472;-2.574;2023-03-04T07:14:33;25.00;;;8.32;;
67665;SDS011;54448;51.472;-2.574;2023-03-04T07:16:59;22.10;;;7.72;;
67665;SDS011;54448;51.472;-2.574;2023-03-04T07:19:24;27.35;;;8.25;;
67665;SDS011;54448;51.472;-2.574;2023-03-04T07:21:49;19.85;;;6.68;;
67665;SDS011;54448;51.472;-2.574;2023-03-04T07:24:15;31.15;;;7.32;;
67665;SDS011;54448;51.472;-2.574;2023-03-04T07:26:40;23.83;;;6.72;;
67665;SDS011;54448;51.472;-2.574;2023-03-04T07:29:06;13.43;;;5.53;;
67665;SDS011;54448;51.472;-2.574;2023-03-04T07:31:32;23.48;;;9.13;;
67665;SDS011;54448;51.472;-2.574;2023-03-04T07:34:00;30.20;;;7.55;;
67665;SDS011;54448;51.472;-2.574;2023-03-04T07:36:29;19.15;;;7.03;;
67665;SDS011;54448;51.472;-2.574;2023-03-04T07:38:55;21.17;;;7.13;;
67665;SDS011;54448;51.472;-2.574;2023-03-04T07:41:21;22.67;;;7.30;;
67665;SDS011;54448;51.472;-2.574;2023-03-04T07:43:48;21.52;;;7.80;;
67665;SDS011;54448;51.472;-2.574;2023-03-04T07:46:13;25.92;;;8.27;;
67665;SDS011;54448;51.472;-2.574;2023-03-04T07:48:39;23.58;;;6.72;;
67665;SDS011;54448;51.472;-2.574;2023-03-04T07:51:14;23.63;;;8.07;;
67665;SDS011;54448;51.472;-2.574;2023-03-04T07:53:42;43.42;;;8.63;;
67665;SDS011;54448;51.472;-2.574;2023-03-04T07:56:13;25.60;;;8.50;;
67665;SDS011;54448;51.472;-2.574;2023-03-04T07:58:40;30.25;;;8.65;;
67665;SDS011;54448;51.472;-2.574;2023-03-04T08:01:10;26.08;;;8.68;;
67665;SDS011;54448;51.472;-2.574;2023-03-04T08:03:36;37.67;;;9.25;;
67665;SDS011;54448;51.472;-2.574;2023-03-04T08:06:06;29.23;;;9.32;;
67665;SDS011;54448;51.472;-2.574;2023-03-04T08:08:33;32.03;;;8.35;;
67665;SDS011;54448;51.472;-2.574;2023-03-04T08:10:59;34.97;;;9.73;;
67665;SDS011;54448;51.472;-2.574;2023-03-04T08:13:27;25.00;;;9.00;;
67665;SDS011;54448;51.472;-2.574;2023-03-04T08:15:54;32.03;;;9.45;;
67665;SDS011;54448;51.472;-2.574;2023-03-04T08:18:20;29.80;;;9.23;;
67665;SDS011;54448;51.472;-2.574;2023-03-04T08:20:45;38.53;;;11.27;;
67665;SDS011;54448;51.472;-2.574;2023-03-04T08:23:10;31.90;;;11.30;;
67665;SDS011;54448;51.472;-2.574;2023-03-04T08:25:39;32.63;;;9.73;;
67665;SDS011;54448;51.472;-2.574;2023-03-04T08:28:06;33.17;;;10.02;;
67665;SDS011;54448;51.472;-2.574;2023-03-04T08:30:32;31.55;;;10.40;;
67665;SDS011;54448;51.472;-2.574;2023-03-04T08:32:57;34.00;;;10.95;;
67665;SDS011;54448;51.472;-2.574;2023-03-04T08:35:22;38.72;;;11.23;;
67665;SDS011;54448;51.472;-2.574;2023-03-04T08:37:48;41.00;;;11.63;;
67665;SDS011;54448;51.472;-2.574;2023-03-04T08:40:13;40.05;;;11.55;;
67665;SDS011;54448;51.472;-2.574;2023-03-04T08:42:39;43.17;;;11.98;;
67665;SDS011;54448;51.472;-2.574;2023-03-04T08:45:05;37.08;;;11.45;;
67665;SDS011;54448;51.472;-2.574;2023-03-04T08:47:31;34.65;;;11.65;;
67665;SDS011;54448;51.472;-2.574;2023-03-04T08:49:56;39.03;;;12.52;;
67665;SDS011;54448;51.472;-2.574;2023-03-04T08:52:22;45.28;;;11.98;;
67665;SDS011;54448;51.472;-2.574;2023-03-04T08:54:48;34.17;;;11.15;;
67665;SDS011;54448;51.472;-2.574;2023-03-04T08:57:13;36.22;;;11.32;;
67665;SDS011;54448;51.472;-2.574;2023-03-04T08:59:39;34.60;;;12.60;;
67665;SDS011;54448;51.472;-2.574;2023-03-04T09:02:04;40.97;;;13.38;;
67665;SDS011;54448;51.472;-2.574;2023-03-04T09:04:29;60.92;;;13.55;;
67665;SDS011;54448;51.472;-2.574;2023-03-04T09:06:55;45.40;;;13.15;;
67665;SDS011;54448;51.472;-2.574;2023-03-04T09:09:20;46.60;;;14.55;;
67665;SDS011;54448;51.472;-2.574;2023-03-04T09:11:46;44.38;;;14.60;;
67665;SDS011;54448;51.472;-2.574;2023-03-04T09:14:11;41.60;;;13.13;;
67665;SDS011;54448;51.472;-2.574;2023-03-04T09:16:36;40.17;;;13.70;;
67665;SDS011;54448;51.472;-2.574;2023-03-04T09:19:02;53.95;;;13.75;;
67665;SDS011;54448;51.472;-2.574;2023-03-04T09:21:27;36.90;;;11.45;;
67665;SDS011;54448;51.472;-2.574;2023-03-04T09:23:52;38.17;;;11.23;;
67665;SDS011;54448;51.472;-2.574;2023-03-04T09:26:20;40.45;;;12.23;;
67665;SDS011;54448;51.472;-2.574;2023-03-04T09:28:59;42.25;;;12.75;;
67665;SDS011;54448;51.472;-2.574;2023-03-04T09:31:25;41.35;;;11.27;;
67665;SDS011;54448;51.472;-2.574;2023-03-04T09:33:52;38.80;;;11.85;;
67665;SDS011;54448;51.472;-2.574;2023-03-04T09:36:18;43.20;;;11.65;;
67665;SDS011;54448;51.472;-2.574;2023-03-04T09:38:44;37.10;;;11.80;;
67665;SDS011;54448;51.472;-2.574;2023-03-04T09:41:13;35.65;;;11.52;;
67665;SDS011;54448;51.472;-2.574;2023-03-04T09:43:41;35.60;;;11.77;;
67665;SDS011;54448;51.472;-2.574;2023-03-04T09:46:09;37.42;;;11.15;;
67665;SDS011;54448;51.472;-2.574;2023-03-04T09:48:48;43.70;;;11.77;;
67665;SDS011;54448;51.472;-2.574;2023-03-04T09:56:24;32.17;;;10.63;;
67665;SDS011;54448;51.472;-2.574;2023-03-04T09:59:08;34.92;;;11.63;;
67665;SDS011;54448;51.472;-2.574;2023-03-04T10:01:49;39.72;;;10.90;;
67665;SDS011;54448;51.472;-2.574;2023-03-04T10:04:24;38.13;;;10.38;;
67665;SDS011;54448;51.472;-2.574;2023-03-04T10:06:50;36.15;;;11.05;;
67665;SDS011;54448;51.472;-2.574;2023-03-04T10:09:19;38.60;;;11.20;;
67665;SDS011;54448;51.472;-2.574;2023-03-04T10:12:11;36.20;;;10.57;;
67665;SDS011;54448;51.472;-2.574;2023-03-04T10:14:37;34.50;;;10.65;;
67665;SDS011;54448;51.472;-2.574;2023-03-04T10:17:10;34.70;;;9.75;;
67665;SDS011;54448;51.472;-2.574;2023-03-04T10:19:47;35.63;;;9.75;;
67665;SDS011;54448;51.472;-2.574;2023-03-04T10:22:20;31.83;;;9.45;;
67665;SDS011;54448;51.472;-2.574;2023-03-04T10:24:57;26.25;;;9.18;;
67665;SDS011;54448;51.472;-2.574;2023-03-04T10:27:23;32.28;;;9.25;;
67665;SDS011;54448;51.472;-2.574;2023-03-04T10:29:50;34.47;;;9.57;;
67665;SDS011;54448;51.472;-2.574;2023-03-04T10:32:16;31.30;;;9.48;;
67665;SDS011;54448;51.472;-2.574;2023-03-04T10:34:42;26.27;;;10.15;;
67665;SDS011;54448;51.472;-2.574;2023-03-04T10:37:08;33.00;;;10.93;;
67665;SDS011;54448;51.472;-2.574;2023-03-04T10:39:38;37.50;;;9.63;;
67665;SDS011;54448;51.472;-2.574;2023-03-04T10:44:43;29.00;;;10.70;;
67665;SDS011;54448;51.472;-2.574;2023-03-04T10:47:16;27.98;;;9.63;;
67665;SDS011;54448;51.472;-2.574;2023-03-04T10:49:49;27.45;;;9.27;;
67665;SDS011;54448;51.472;-2.574;2023-03-04T10:52:23;35.08;;;10.32;;
67665;SDS011;54448;51.472;-2.574;2023-03-04T10:55:01;36.35;;;10.93;;
67665;SDS011;54448;51.472;-2.574;2023-03-04T10:57:38;38.00;;;11.45;;
67665;SDS011;54448;51.472;-2.574;2023-03-04T11:02:46;37.03;;;11.50;;
67665;SDS011;54448;51.472;-2.574;2023-03-04T11:05:31;32.97;;;9.68;;
67665;SDS011;54448;51.472;-2.574;2023-03-04T11:07:59;33.80;;;11.25;;
67665;SDS011;54448;51.472;-2.574;2023-03-04T11:10:27;35.20;;;11.25;;
67665;SDS011;54448;51.472;-2.574;2023-03-04T11:15:52;38.10;;;11.90;;
67665;SDS011;54448;51.472;-2.574;2023-03-04T11:21:06;43.03;;;12.13;;
67665;SDS011;54448;51.472;-2.574;2023-03-04T11:26:15;37.45;;;12.48;;
67665;SDS011;54448;51.472;-2.574;2023-03-04T11:28:51;47.42;;;12.75;;
67665;SDS011;54448;51.472;-2.574;2023-03-04T11:31:29;47.67;;;12.85;;
67665;SDS011;54448;51.472;-2.574;2023-03-04T11:34:06;36.83;;;13.02;;
67665;SDS011;54448;51.472;-2.574;2023-03-04T11:39:58;49.88;;;13.82;;
67665;SDS011;54448;51.472;-2.574;2023-03-04T11:44:36;45.20;;;14.18;;
67665;SDS011;54448;51.472;-2.574;2023-03-04T11:47:06;45.33;;;13.98;;
67665;SDS011;54448;51.472;-2.574;2023-03-04T11:52:22;37.53;;;13.68;;
67665;SDS011;54448;51.472;-2.574;2023-03-04T11:57:46;54.47;;;15.95;;
67665;SDS011;54448;51.472;-2.574;2023-03-04T12:11:01;45.75;;;13.48;;
67665;SDS011;54448;51.472;-2.574;2023-03-04T12:13:35;33.78;;;12.50;;
67665;SDS011;54448;51.472;-2.574;2023-03-04T12:16:15;51.10;;;13.10;;
67665;SDS011;54448;51.472;-2.574;2023-03-04T12:21:51;47.55;;;14.70;;
67665;SDS011;54448;51.472;-2.574;2023-03-04T12:35:25;59.10;;;14.45;;
67665;SDS011;54448;51.472;-2.574;2023-03-04T12:40:37;40.22;;;13.77;;
67665;SDS011;54448;51.472;-2.574;2023-03-04T12:46:23;38.63;;;13.10;;
67665;SDS011;54448;51.472;-2.574;2023-03-04T12:54:24;42.22;;;13.63;;
67665;SDS011;54448;51.472;-2.574;2023-03-04T12:59:42;41.75;;;13.18;;
67665;SDS011;54448;51.472;-2.574;2023-03-04T13:08:07;40.78;;;14.27;;
67665;SDS011;54448;51.472;-2.574;2023-03-04T13:10:49;40.58;;;13.32;;
67665;SDS011;54448;51.472;-2.574;2023-03-04T13:18:59;50.47;;;15.38;;
67665;SDS011;54448;51.472;-2.574;2023-03-04T13:21:26;51.55;;;14.02;;
67665;SDS011;54448;51.472;-2.574;2023-03-04T13:23:52;56.53;;;15.02;;
67665;SDS011;54448;51.472;-2.574;2023-03-04T13:26:21;45.33;;;14.30;;
67665;SDS011;54448;51.472;-2.574;2023-03-04T13:29:08;61.50;;;15.23;;
67665;SDS011;54448;51.472;-2.574;2023-03-04T13:31:55;43.78;;;15.40;;
67665;SDS011;54448;51.472;-2.574;2023-03-04T13:34:40;50.70;;;14.82;;
67665;SDS011;54448;51.472;-2.574;2023-03-04T13:37:26;47.22;;;14.95;;
67665;SDS011;54448;51.472;-2.574;2023-03-04T13:42:52;47.45;;;15.30;;
67665;SDS011;54448;51.472;-2.574;2023-03-04T13:45:31;45.38;;;15.35;;
67665;SDS011;54448;51.472;-2.574;2023-03-04T13:47:58;45.70;;;14.60;;
67665;SDS011;54448;51.472;-2.574;2023-03-04T13:50:29;41.25;;;14.57;;
67665;SDS011;54448;51.472;-2.574;2023-03-04T13:56:01;56.15;;;15.48;;
67665;SDS011;54448;51.472;-2.574;2023-03-04T13:58:30;58.58;;;14.90;;
67665;SDS011;54448;51.472;-2.574;2023-03-04T14:00:55;49.95;;;14.52;;
67665;SDS011;54448;51.472;-2.574;2023-03-04T14:03:25;62.72;;;16.30;;
67665;SDS011;54448;51.472;-2.574;2023-03-04T14:06:12;57.65;;;15.68;;
67665;SDS011;54448;51.472;-2.574;2023-03-04T14:08:44;51.03;;;15.88;;
67665;SDS011;54448;51.472;-2.574;2023-03-04T14:11:14;60.47;;;17.13;;
67665;SDS011;54448;51.472;-2.574;2023-03-04T14:13:42;45.83;;;14.85;;
67665;SDS011;54448;51.472;-2.574;2023-03-04T14:16:08;53.80;;;15.25;;
67665;SDS011;54448;51.472;-2.574;2023-03-04T14:18:34;48.88;;;16.27;;
67665;SDS011;54448;51.472;-2.574;2023-03-04T14:21:01;53.75;;;15.65;;
67665;SDS011;54448;51.472;-2.574;2023-03-04T14:26:06;54.97;;;15.95;;
67665;SDS011;54448;51.472;-2.574;2023-03-04T14:28:49;54.08;;;14.43;;
67665;SDS011;54448;51.472;-2.574;2023-03-04T14:31:21;53.15;;;15.73;;
67665;SDS011;54448;51.472;-2.574;2023-03-04T14:33:52;56.58;;;15.10;;
67665;SDS011;54448;51.472;-2.574;2023-03-04T14:36:23;46.33;;;14.35;;
67665;SDS011;54448;51.472;-2.574;2023-03-04T14:38:51;54.00;;;16.25;;
67665;SDS011;54448;51.472;-2.574;2023-03-04T14:41:40;57.45;;;16.13;;
67665;SDS011;54448;51.472;-2.574;2023-03-04T14:44:10;50.08;;;15.55;;
67665;SDS011;54448;51.472;-2.574;2023-03-04T14:46:49;51.63;;;15.45;;
67665;SDS011;54448;51.472;-2.574;2023-03-04T14:49:18;55.75;;;15.43;;
67665;SDS011;54448;51.472;-2.574;2023-03-04T14:51:47;50.10;;;15.85;;
67665;SDS011;54448;51.472;-2.574;2023-03-04T14:57:01;52.83;;;16.30;;
67665;SDS011;54448;51.472;-2.574;2023-03-04T14:59:50;49.65;;;14.55;;
67665;SDS011;54448;51.472;-2.574;2023-03-04T15:02:17;39.88;;;12.13;;
67665;SDS011;54448;51.472;-2.574;2023-03-04T15:04:46;46.33;;;13.85;;
67665;SDS011;54448;51.472;-2.574;2023-03-04T15:07:16;41.47;;;12.85;;
67665;SDS011;54448;51.472;-2.574;2023-03-04T15:09:54;39.22;;;14.07;;
67665;SDS011;54448;51.472;-2.574;2023-03-04T15:12:23;39.25;;;12.93;;
67665;SDS011;54448;51.472;-2.574;2023-03-04T15:25:05;41.80;;;12.27;;
67665;SDS011;54448;51.472;-2.574;2023-03-04T15:27:30;47.20;;;13.18;;
67665;SDS011;54448;51.472;-2.574;2023-03-04T15:29:56;45.60;;;13.95;;
67665;SDS011;54448;51.472;-2.574;2023-03-04T15:32:26;40.80;;;12.90;;
67665;SDS011;54448;51.472;-2.574;2023-03-04T15:34:52;45.47;;;13.68;;
67665;SDS011;54448;51.472;-2.574;2023-03-04T15:37:22;41.35;;;13.80;;
67665;SDS011;54448;51.472;-2.574;2023-03-04T15:39:50;39.20;;;13.63;;
67665;SDS011;54448;51.472;-2.574;2023-03-04T15:42:15;39.90;;;12.77;;
67665;SDS011;54448;51.472;-2.574;2023-03-04T15:44:41;42.90;;;11.43;;
67665;SDS011;54448;51.472;-2.574;2023-03-04T15:47:08;43.47;;;13.68;;
67665;SDS011;54448;51.472;-2.574;2023-03-04T15:49:37;39.53;;;12.98;;
67665;SDS011;54448;51.472;-2.574;2023-03-04T15:52:03;39.97;;;13.20;;
67665;SDS011;54448;51.472;-2.574;2023-03-04T15:54:29;42.75;;;13.10;;
67665;SDS011;54448;51.472;-2.574;2023-03-04T15:56:55;41.40;;;12.27;;
67665;SDS011;54448;51.472;-2.574;2023-03-04T15:59:22;44.92;;;14.02;;
67665;SDS011;54448;51.472;-2.574;2023-03-04T16:01:48;43.38;;;14.10;;
67665;SDS011;54448;51.472;-2.574;2023-03-04T16:04:14;37.83;;;13.80;;